createdAt,value
2023-06-19T00:03:51.666Z,2.15
2023-06-19T00:08:54.389Z,2.03
2023-06-19T00:13:57.230Z,1.90
2023-06-19T00:19:00.218Z,1.60
2023-06-19T00:24:03.632Z,2.47
2023-06-19T00:29:06.511Z,2.08
2023-06-19T00:34:09.353Z,2.47
2023-06-19T00:39:12.391Z,2.13
2023-06-19T00:44:18.326Z,2.20
2023-06-19T00:49:21.230Z,2.40
2023-06-19T00:54:24.137Z,2.55
2023-06-19T00:59:27.456Z,2.55
2023-06-19T01:04:30.173Z,2.42
2023-06-19T01:09:47.907Z,2.20
2023-06-19T01:15:09.764Z,2.50
2023-06-19T01:20:13.297Z,1.95
2023-06-19T01:25:16.545Z,2.00
2023-06-19T01:30:19.336Z,2.15
2023-06-19T01:35:26.596Z,2.85
2023-06-19T01:40:33.073Z,2.30
2023-06-19T01:45:36.468Z,3.35
2023-06-19T01:50:39.233Z,2.20
2023-06-19T01:55:42.392Z,1.30
2023-06-19T02:00:45.022Z,1.25
2023-06-19T02:05:47.740Z,1.42
2023-06-19T02:10:50.525Z,1.60
2023-06-19T02:15:53.605Z,1.40
2023-06-19T02:21:00.504Z,1.50
2023-06-19T02:26:03.256Z,1.70
2023-06-19T02:31:06.079Z,2.38
2023-06-19T02:36:08.789Z,2.40
2023-06-19T02:41:11.393Z,2.08
2023-06-19T02:46:14.459Z,2.28
2023-06-19T02:51:17.527Z,2.00
2023-06-19T02:56:20.249Z,1.92
2023-06-19T03:01:23.051Z,1.65
2023-06-19T03:06:27.342Z,1.40
2023-06-19T03:11:30.464Z,1.58
2023-06-19T03:16:33.449Z,1.70
2023-06-19T03:21:36.850Z,1.30
2023-06-19T03:26:40.214Z,1.30
2023-06-19T03:31:43.979Z,1.50
2023-06-19T03:36:47.507Z,1.50
2023-06-19T03:41:50.270Z,1.40
2023-06-19T03:46:55.166Z,1.60
2023-06-19T03:51:57.984Z,1.20
2023-06-19T03:57:00.795Z,1.50
2023-06-19T04:02:03.620Z,1.60
2023-06-19T04:07:06.828Z,1.20
2023-06-19T04:12:10.163Z,1.50
2023-06-19T04:17:13.472Z,1.88
2023-06-19T04:27:18.927Z,1.45
2023-06-19T04:32:21.799Z,2.05
2023-06-19T04:37:24.599Z,1.48
2023-06-19T04:42:27.897Z,2.08
2023-06-19T04:47:39.836Z,1.60
2023-06-19T04:52:52.669Z,1.80
2023-06-19T04:57:56.410Z,2.10
2023-06-19T05:03:01.961Z,2.00
2023-06-19T05:08:05.078Z,1.90
2023-06-19T05:13:07.853Z,1.70
2023-06-19T05:18:10.632Z,1.60
2023-06-19T05:28:16.602Z,1.52
2023-06-19T05:33:20.524Z,1.67
2023-06-19T05:38:24.909Z,2.20
2023-06-19T05:43:28.063Z,1.70
2023-06-19T05:48:31.949Z,2.05
2023-06-19T05:53:34.690Z,1.70
2023-06-19T05:58:37.473Z,2.00
2023-06-19T06:03:40.577Z,1.83
2023-06-19T06:09:01.904Z,1.48
2023-06-19T06:19:07.781Z,1.42
2023-06-19T06:24:10.619Z,2.08
2023-06-19T06:29:13.355Z,2.00
2023-06-19T06:34:16.216Z,2.13
2023-06-19T06:39:21.180Z,1.98
2023-06-19T06:44:23.935Z,1.90
2023-06-19T06:49:26.857Z,1.40
2023-06-19T06:54:29.466Z,1.73
2023-06-19T06:59:32.362Z,1.65
2023-06-19T07:04:35.210Z,1.50
2023-06-19T07:09:38.130Z,1.60
2023-06-19T07:14:40.970Z,1.50
2023-06-19T07:19:43.594Z,2.25
2023-06-19T07:24:46.525Z,1.90
2023-06-19T07:29:49.249Z,1.70
2023-06-19T07:34:52.427Z,2.70
2023-06-19T07:39:55.155Z,1.58
2023-06-19T07:44:59.262Z,2.05
2023-06-19T07:50:02.044Z,1.73
2023-06-19T07:55:07.740Z,1.70
2023-06-19T08:00:14.681Z,1.42
2023-06-19T08:05:17.830Z,2.25
2023-06-19T08:10:20.660Z,1.40
2023-06-19T08:15:23.520Z,2.55
2023-06-19T08:20:26.555Z,2.60
2023-06-19T08:25:29.786Z,2.33
2023-06-19T08:30:54.197Z,2.28
2023-06-19T08:36:07.449Z,2.33
2023-06-19T08:41:10.592Z,1.73
2023-06-19T08:46:33.112Z,2.33
2023-06-19T08:51:54.423Z,2.40
2023-06-19T08:56:57.564Z,2.80
2023-06-19T09:02:00.665Z,2.42
2023-06-19T09:07:10.101Z,1.80
2023-06-19T09:12:21.651Z,1.73
2023-06-19T09:17:33.845Z,2.05
2023-06-19T09:23:05.128Z,2.10
2023-06-19T09:33:43.454Z,1.60
2023-06-19T09:38:49.266Z,2.17
2023-06-19T09:43:56.283Z,2.40
2023-06-19T09:49:05.973Z,2.17
2023-06-19T09:54:11.305Z,1.70
2023-06-19T09:59:16.537Z,1.42
2023-06-19T10:04:46.738Z,2.20
2023-06-19T10:10:32.046Z,2.33
2023-06-19T10:15:45.729Z,1.92
2023-06-19T10:20:49.389Z,1.85
2023-06-19T10:25:55.916Z,2.60
2023-06-19T10:31:24.215Z,1.70
2023-06-19T10:41:33.564Z,2.03
2023-06-19T10:46:38.592Z,2.72
2023-06-19T10:51:45.193Z,2.05
2023-06-19T10:56:50.273Z,1.77
2023-06-19T11:02:31.577Z,2.00
2023-06-19T11:07:36.028Z,1.70
2023-06-19T11:12:38.949Z,1.65
2023-06-19T11:17:42.275Z,4.90
2023-06-19T11:22:45.472Z,1.80
2023-06-19T11:27:53.446Z,1.55
2023-06-19T11:32:57.282Z,1.20
2023-06-19T11:38:00.824Z,1.45
2023-06-19T11:43:03.931Z,2.00
2023-06-19T11:48:27.952Z,1.90
2023-06-19T11:53:31.010Z,1.65
2023-06-19T11:58:34.909Z,2.38
2023-06-19T12:03:41.299Z,2.28
2023-06-19T12:08:45.933Z,1.50
2023-06-19T12:13:48.877Z,1.88
2023-06-19T12:19:10.833Z,2.03
2023-06-19T12:24:15.559Z,1.90
2023-06-19T12:29:37.473Z,1.70
2023-06-19T12:34:40.847Z,1.75
2023-06-19T12:39:43.829Z,1.80
2023-06-19T12:49:51.854Z,1.98
2023-06-19T12:54:55.356Z,1.80
2023-06-19T12:59:58.151Z,1.85
2023-06-19T13:05:01.039Z,1.70
2023-06-19T13:10:07.544Z,2.08
2023-06-19T13:15:10.986Z,1.80
2023-06-19T13:20:15.725Z,2.10
2023-06-19T13:25:36.940Z,1.90
2023-06-19T13:30:40.443Z,1.50
2023-06-19T13:41:11.238Z,2.03
2023-06-19T13:46:15.031Z,1.45
2023-06-19T13:51:19.209Z,1.70
2023-06-19T13:56:22.238Z,1.60
2023-06-19T14:01:29.490Z,1.42
2023-06-19T14:06:51.318Z,1.52
2023-06-19T14:11:55.099Z,1.90
2023-06-19T14:17:16.239Z,1.30
2023-06-19T14:22:37.245Z,1.85
2023-06-19T14:27:40.045Z,1.15
2023-06-19T14:32:42.980Z,1.50
2023-06-19T14:37:45.878Z,1.23
2023-06-19T14:42:49.012Z,1.33
2023-06-19T14:53:13.350Z,1.60
2023-06-19T14:58:16.632Z,1.77
2023-06-19T15:03:19.614Z,1.63
2023-06-19T15:08:25.351Z,1.30
2023-06-19T15:13:47.453Z,1.60
2023-06-19T15:18:50.403Z,1.63
2023-06-19T15:24:15.281Z,1.50
2023-06-19T15:29:36.617Z,1.65
2023-06-19T15:34:39.319Z,1.40
2023-06-19T15:39:45.417Z,2.08
2023-06-19T15:44:48.664Z,3.58
2023-06-19T15:49:51.720Z,3.85
2023-06-19T15:54:54.526Z,2.53
2023-06-19T15:59:57.987Z,2.17
2023-06-19T16:05:00.943Z,2.00
2023-06-19T16:10:06.635Z,1.98
2023-06-19T16:15:10.673Z,2.10
2023-06-19T16:20:13.781Z,2.47
2023-06-19T16:25:19.110Z,2.80
2023-06-19T16:30:41.279Z,2.15
2023-06-19T16:35:45.518Z,2.30
2023-06-19T16:40:48.453Z,2.65
2023-06-19T16:46:09.718Z,2.83
2023-06-19T16:51:33.570Z,2.45
2023-06-19T16:56:37.016Z,2.90
2023-06-19T17:01:40.376Z,2.63
2023-06-19T17:06:43.304Z,2.72
2023-06-19T17:11:46.172Z,2.65
2023-06-19T17:16:48.920Z,2.03
2023-06-19T17:21:51.684Z,1.90
2023-06-19T17:26:58.658Z,2.13
2023-06-19T17:32:01.690Z,3.25
2023-06-19T17:37:05.148Z,3.15
2023-06-19T17:42:27.940Z,3.67
2023-06-19T17:47:30.839Z,3.40
2023-06-19T17:52:33.930Z,3.60
2023-06-19T17:57:37.877Z,3.28
2023-06-19T18:02:40.825Z,4.18
2023-06-19T18:07:43.627Z,4.43
2023-06-19T18:12:46.440Z,4.07
2023-06-19T18:17:49.435Z,3.28
2023-06-19T18:22:52.628Z,3.53
2023-06-19T18:28:15.701Z,2.03
2023-06-19T18:33:20.452Z,2.33
2023-06-19T18:38:41.589Z,2.22
2023-06-19T18:43:44.627Z,2.65
2023-06-19T18:48:47.698Z,2.20
2023-06-19T18:53:53.584Z,2.80
2023-06-19T18:58:56.813Z,2.40
2023-06-19T19:03:59.488Z,2.25
2023-06-19T19:09:03.324Z,2.47
2023-06-19T19:14:07.435Z,2.47
2023-06-19T19:19:10.393Z,1.70
2023-06-19T19:24:13.183Z,2.30
2023-06-19T19:29:16.042Z,2.13
2023-06-19T19:34:22.325Z,1.92
2023-06-19T19:39:28.791Z,1.90
2023-06-19T19:44:33.116Z,2.25
2023-06-19T19:49:36.854Z,1.88
2023-06-19T19:54:39.827Z,2.20
2023-06-19T19:59:42.838Z,1.90
2023-06-19T20:04:45.585Z,1.83
2023-06-19T20:09:48.268Z,2.45
2023-06-19T20:14:52.198Z,1.75
2023-06-19T20:19:55.198Z,1.85
2023-06-19T20:24:57.844Z,1.67
2023-06-19T20:30:00.678Z,1.80
2023-06-19T20:35:03.380Z,1.73
2023-06-19T20:40:10.263Z,1.70
2023-06-19T20:45:15.459Z,1.80
2023-06-19T20:50:18.173Z,2.55
2023-06-19T20:55:20.900Z,2.95
2023-06-19T21:00:25.109Z,2.90
2023-06-19T21:05:28.450Z,2.90
2023-06-19T21:10:31.195Z,3.22
2023-06-19T21:15:33.935Z,2.70
2023-06-19T21:20:36.639Z,2.60
2023-06-19T21:25:39.798Z,2.40
2023-06-19T21:30:42.598Z,2.90
2023-06-19T21:35:45.359Z,2.83
2023-06-19T21:40:48.061Z,3.38
2023-06-19T21:45:51.007Z,3.33
2023-06-19T21:50:54.517Z,2.38
2023-06-19T21:55:59.696Z,3.72
2023-06-19T22:01:02.505Z,2.90
2023-06-19T22:06:05.049Z,2.95
2023-06-19T22:11:08.013Z,3.10
2023-06-19T22:16:10.893Z,3.05
2023-06-19T22:21:14.674Z,2.80
2023-06-19T22:26:20.817Z,3.03
2023-06-19T22:31:26.421Z,2.67
2023-06-19T22:36:30.193Z,2.75
2023-06-19T22:41:32.864Z,3.70
2023-06-19T22:46:35.497Z,2.40
2023-06-19T22:51:38.431Z,2.20
2023-06-19T22:56:41.386Z,2.67
2023-06-19T23:01:44.155Z,2.60
2023-06-19T23:06:49.086Z,2.17
2023-06-19T23:11:54.242Z,2.38
2023-06-19T23:16:57.609Z,2.13
2023-06-19T23:22:00.325Z,1.98
2023-06-19T23:27:03.119Z,2.10
2023-06-19T23:32:06.381Z,1.80
2023-06-19T23:37:08.949Z,2.15
2023-06-19T23:42:13.174Z,1.80
2023-06-19T23:47:15.954Z,1.52
2023-06-19T23:52:29.632Z,1.95
2023-06-19T23:57:37.111Z,1.58
